Time;durP1;ratioP1;P1;durP2;ratioP2;P2;SDS_P1;SDS_P2;PMS_P1;PMS_P2;Temp;Humidity;BMP_temperature;BMP_pressure;BME280_temperature;BME280_humidity;BME280_pressure;Samples;Min_cycle;Max_cycle;Signal;HPM_P1;HPM_P2
2022/08/21 00:02:26;;;;;;;70.78;51.35;;;;;;;18.84;35.56;100722.84;5013504;28;20045;-53
2022/08/21 00:04:53;;;;;;;71.57;48.53;;;;;;;18.78;35.82;100725.13;5013777;28;20120;-54
2022/08/21 00:07:19;;;;;;;74.95;50.60;;;;;;;18.75;35.46;100709.16;5013166;28;20470;-53
2022/08/21 00:09:45;;;;;;;70.93;49.95;;;;;;;18.70;36.00;100710.66;5013162;28;20171;-51
2022/08/21 00:12:11;;;;;;;70.22;50.28;;;;;;;18.69;35.68;100709.81;5020665;28;20029;-55
2022/08/21 00:14:37;;;;;;;68.20;49.53;;;;;;;18.64;36.01;100714.84;5031111;28;20038;-52
2022/08/21 00:17:04;;;;;;;67.93;50.25;;;;;;;18.66;35.86;100720.97;5032904;28;20030;-51
2022/08/21 00:19:30;;;;;;;67.82;50.03;;;;;;;18.63;35.71;100710.44;5021907;28;20109;-51
2022/08/21 00:21:55;;;;;;;75.43;51.90;;;;;;;18.60;36.04;100703.44;5012980;28;20033;-50
2022/08/21 00:24:22;;;;;;;71.97;49.30;;;;;;;18.62;35.94;100723.13;5013106;28;20040;-55
2022/08/21 00:26:48;;;;;;;71.97;49.38;;;;;;;18.54;36.14;100716.75;5012829;28;20032;-58
2022/08/21 00:29:13;;;;;;;71.05;51.90;;;;;;;18.37;36.18;100684.09;5013863;28;20042;-54
2022/08/21 00:31:40;;;;;;;73.35;51.15;;;;;;;18.60;36.07;100716.16;5013063;28;20437;-52
2022/08/21 00:34:07;;;;;;;74.13;50.88;;;;;;;18.55;36.11;100702.19;5018272;28;20057;-52
2022/08/21 00:36:33;;;;;;;72.45;49.60;;;;;;;18.49;36.14;100701.81;5032535;28;20112;-52
2022/08/21 00:38:58;;;;;;;72.15;48.53;;;;;;;18.39;36.30;100698.34;5032244;28;20152;-50
2022/08/21 00:41:24;;;;;;;72.43;49.97;;;;;;;18.46;36.50;100707.56;5021537;28;20025;-54
2022/08/21 00:43:50;;;;;;;72.53;48.78;;;;;;;18.33;36.53;100710.63;5012587;28;20116;-55
2022/08/21 00:46:16;;;;;;;68.05;49.60;;;;;;;18.38;36.63;100701.19;5012776;28;20038;-53
2022/08/21 00:48:41;;;;;;;70.38;49.53;;;;;;;18.25;36.72;100704.28;5012590;28;20034;-52
2022/08/21 00:51:15;;;;;;;72.43;49.75;;;;;;;18.25;36.59;100686.16;5027836;28;20043;-53
2022/08/21 00:53:43;;;;;;;66.78;47.17;;;;;;;18.21;36.75;100706.44;5031414;28;20033;-54
2022/08/21 00:56:10;;;;;;;66.43;47.38;;;;;;;18.18;37.22;100699.47;5023677;28;20042;-50
2022/08/21 00:58:38;;;;;;;65.70;48.10;;;;;;;18.16;36.94;100697.91;5012300;28;20524;-52
2022/08/21 01:01:06;;;;;;;68.30;46.95;;;;;;;18.12;37.19;100697.38;5012536;28;20030;-53
2022/08/21 01:03:32;;;;;;;65.82;45.72;;;;;;;18.03;37.33;100706.41;5023493;28;20493;-52
2022/08/21 01:05:58;;;;;;;67.88;45.30;;;;;;;18.01;37.51;100705.66;5032067;28;20046;-52
2022/08/21 01:08:24;;;;;;;68.60;45.95;;;;;;;18.07;37.18;100700.53;5030182;28;20045;-55
2022/08/21 01:10:52;;;;;;;63.28;44.92;;;;;;;18.05;37.42;100709.81;5012181;28;20121;-57
2022/08/21 01:13:22;;;;;;;67.45;44.83;;;;;;;17.94;37.46;100702.69;5012274;28;20116;-56
2022/08/21 01:15:49;;;;;;;66.43;44.63;;;;;;;17.99;37.36;100702.25;5025215;28;20105;-51
2022/08/21 01:18:16;;;;;;;65.15;44.60;;;;;;;18.01;37.54;100711.09;5031927;28;20056;-53
2022/08/21 01:21:06;;;;;;;73.03;43.85;;;;;;;18.08;37.29;100712.19;5031660;28;20049;-54
2022/08/21 01:23:34;;;;;;;61.70;44.08;;;;;;;17.96;37.61;100716.94;5012046;28;20501;-53
2022/08/21 01:26:00;;;;;;;65.72;43.80;;;;;;;17.92;37.74;100707.41;5011779;28;20049;-52
2022/08/21 01:28:27;;;;;;;59.60;43.45;;;;;;;17.81;37.86;100700.34;5012550;28;20459;-55
2022/08/21 01:30:54;;;;;;;60.28;41.95;;;;;;;17.74;37.97;100701.94;5030035;28;20473;-54
2022/08/21 01:33:23;;;;;;;64.10;41.65;;;;;;;17.78;38.02;100706.06;5031931;28;20029;-54
2022/08/21 01:35:49;;;;;;;58.33;41.58;;;;;;;17.73;38.16;100697.53;5032094;28;20044;-54
2022/08/21 01:38:25;;;;;;;66.40;41.08;;;;;;;17.75;38.16;100695.53;5031879;28;20382;-53
2022/08/21 01:40:50;;;;;;;55.40;40.53;;;;;;;17.74;38.11;100699.25;5022940;28;20021;-63
2022/08/21 01:43:16;;;;;;;59.60;40.25;;;;;;;17.61;38.24;100697.75;5031523;28;20075;-51
2022/08/21 01:45:41;;;;;;;60.88;41.10;;;;;;;17.61;38.25;100703.16;5031362;28;20080;-53
2022/08/21 01:48:07;;;;;;;60.80;40.70;;;;;;;17.72;38.06;100709.38;5015531;28;20038;-53
2022/08/21 01:50:32;;;;;;;57.17;38.58;;;;;;;17.74;38.18;100704.66;5011474;28;20398;-54
2022/08/21 01:52:58;;;;;;;59.20;40.28;;;;;;;17.69;38.04;100699.69;5012403;28;20030;-50
2022/08/21 01:55:24;;;;;;;57.05;38.67;;;;;;;17.62;38.31;100698.56;5011620;28;20493;-49
2022/08/21 01:57:50;;;;;;;51.40;37.88;;;;;;;17.62;38.37;100702.16;5016950;28;20056;-54
2022/08/21 02:00:19;;;;;;;53.45;37.65;;;;;;;17.62;38.32;100718.41;5031103;28;20108;-55
2022/08/21 02:02:45;;;;;;;53.45;38.58;;;;;;;17.62;38.35;100701.28;5022446;28;20111;-53
2022/08/21 02:05:12;;;;;;;56.42;39.55;;;;;;;17.57;38.44;100709.00;5011375;28;20042;-53
2022/08/21 02:07:40;;;;;;;56.85;38.25;;;;;;;17.50;38.47;100712.31;5012304;28;20037;-55
2022/08/21 02:10:07;;;;;;;57.92;38.50;;;;;;;17.48;38.93;100705.31;5011286;28;20038;-53
2022/08/21 02:12:33;;;;;;;59.38;37.63;;;;;;;17.41;38.76;100720.47;5011401;28;20087;-53
2022/08/21 02:15:19;;;;;;;56.88;35.88;;;;;;;17.28;38.85;100694.56;5010806;28;20045;-52
2022/08/21 02:17:51;;;;;;;56.63;38.67;;;;;;;17.47;38.80;100714.44;5013337;28;20033;-57
2022/08/21 02:20:31;;;;;;;58.05;36.95;;;;;;;17.43;38.91;100718.47;5011262;28;20053;-58
2022/08/21 02:22:56;;;;;;;50.55;36.58;;;;;;;17.35;39.19;100713.78;5016513;28;20037;-55
2022/08/21 02:25:24;;;;;;;56.67;37.92;;;;;;;17.46;38.88;100720.88;5031415;28;20039;-60
2022/08/21 02:27:50;;;;;;;56.17;36.85;;;;;;;17.47;38.91;100723.41;5031284;28;20041;-56
2022/08/21 02:30:38;;;;;;;50.72;34.65;;;;;;;17.55;38.62;100722.69;5013593;28;20034;-53
2022/08/21 02:33:05;;;;;;;54.80;36.65;;;;;;;17.28;38.70;100683.72;5010899;28;20113;-52
2022/08/21 02:35:31;;;;;;;52.88;35.08;;;;;;;17.37;38.84;100714.47;5013307;28;20037;-55
2022/08/21 02:38:00;;;;;;;53.83;35.72;;;;;;;17.53;38.61;100713.84;5030942;28;20100;-55
2022/08/21 02:40:31;;;;;;;49.90;35.28;;;;;;;17.53;38.62;100713.84;5030541;28;20033;-51
2022/08/21 02:42:58;;;;;;;57.38;36.67;;;;;;;17.58;38.41;100714.25;5022475;28;20026;-50
2022/08/21 02:45:24;;;;;;;50.45;35.42;;;;;;;17.63;38.39;100716.53;5011233;28;20037;-54
2022/08/21 02:47:52;;;;;;;49.70;34.60;;;;;;;17.69;38.37;100715.94;5010924;28;20026;-51
2022/08/21 02:50:20;;;;;;;52.22;35.75;;;;;;;17.74;38.05;100721.78;5027794;28;20072;-54
2022/08/21 02:52:46;;;;;;;53.30;34.72;;;;;;;17.77;38.03;100720.59;5030246;28;20040;-53
2022/08/21 02:55:12;;;;;;;55.40;36.17;;;;;;;17.83;37.89;100713.75;5030197;28;20433;-64
2022/08/21 02:57:37;;;;;;;52.72;36.85;;;;;;;17.62;37.95;100685.91;5010828;28;20026;-54
2022/08/21 03:00:05;;;;;;;52.17;36.58;;;;;;;18.00;37.55;100715.66;5010763;28;20092;-53
2022/08/21 03:02:30;;;;;;;54.60;35.58;;;;;;;18.04;37.40;100722.50;5014573;28;20030;-50
2022/08/21 03:04:56;;;;;;;53.08;35.22;;;;;;;18.13;37.42;100725.31;5030522;28;20040;-60
2022/08/21 03:07:21;;;;;;;54.38;35.33;;;;;;;18.17;37.30;100715.88;5027975;28;20033;-52
2022/08/21 03:09:47;;;;;;;55.35;37.08;;;;;;;18.28;36.82;100718.38;5010991;28;20045;-55
2022/08/21 03:12:12;;;;;;;57.40;35.92;;;;;;;18.38;36.94;100712.91;5012132;28;20046;-52
2022/08/21 03:14:38;;;;;;;52.13;37.08;;;;;;;18.41;36.78;100711.72;5018558;28;20070;-52
2022/08/21 03:17:04;;;;;;;53.63;36.20;;;;;;;18.50;36.79;100711.66;5010919;28;20485;-53
2022/08/21 03:19:30;;;;;;;58.03;37.70;;;;;;;18.51;36.65;100724.19;5014386;28;20548;-53
2022/08/21 03:21:55;;;;;;;49.10;36.90;;;;;;;18.42;36.45;100700.72;5015476;28;20030;-54
2022/08/21 03:24:20;;;;;;;53.25;36.83;;;;;;;18.69;36.52;100733.34;5014607;28;20034;-53
2022/08/21 03:26:46;;;;;;;54.53;35.05;;;;;;;18.86;36.13;100720.81;5014278;28;20036;-54
2022/08/21 03:29:11;;;;;;;53.47;36.28;;;;;;;19.10;35.37;100728.31;5014930;28;20053;-55
2022/08/21 03:31:37;;;;;;;53.40;36.30;;;;;;;19.22;35.39;100721.63;5013915;28;20045;-55
2022/08/21 03:34:02;;;;;;;51.42;36.33;;;;;;;19.42;34.72;100726.00;5014349;28;20117;-54
2022/08/21 03:36:28;;;;;;;54.63;37.03;;;;;;;19.53;34.50;100733.84;5023799;28;20030;-57
2022/08/21 03:38:53;;;;;;;55.72;36.80;;;;;;;19.74;34.30;100736.22;5033726;28;20121;-54
2022/08/21 03:41:19;;;;;;;52.50;36.10;;;;;;;19.95;33.31;100726.81;5032506;28;20470;-53
2022/08/21 03:43:44;;;;;;;55.38;36.90;;;;;;;20.32;32.99;100728.28;5032602;28;20033;-55
2022/08/21 03:46:10;;;;;;;57.83;37.38;;;;;;;20.87;31.91;100727.91;5033460;28;20036;-55
2022/08/21 03:48:37;;;;;;;50.00;38.22;;;;;;;21.51;30.75;100735.34;5032821;28;20073;-54
2022/08/21 03:51:03;;;;;;;54.80;37.97;;;;;;;22.07;30.23;100720.88;5026309;28;20030;-50
2022/08/21 03:53:29;;;;;;;52.72;36.58;;;;;;;22.51;28.82;100723.03;5013751;28;20028;-67
2022/08/21 03:55:56;;;;;;;55.70;36.80;;;;;;;22.86;28.38;100719.88;5014138;28;20078;-53
2022/08/21 03:58:24;;;;;;;58.10;36.92;;;;;;;23.32;27.62;100718.97;5013153;28;20022;-54
2022/08/21 04:00:53;;;;;;;52.33;36.47;;;;;;;23.56;27.47;100717.03;5013641;28;20109;-49
2022/08/21 04:03:20;;;;;;;55.90;37.45;;;;;;;23.77;26.83;100720.88;5013627;28;20829;-53
2022/08/21 04:05:46;;;;;;;50.17;38.17;;;;;;;23.89;26.79;100713.91;5014112;28;20088;-55
2022/08/21 04:08:12;;;;;;;59.47;38.13;;;;;;;24.01;26.67;100711.56;5013144;28;20038;-54
2022/08/21 04:10:39;;;;;;;46.60;35.88;;;;;;;24.22;26.25;100708.03;5013498;28;20044;-56
2022/08/21 04:13:06;;;;;;;48.72;36.03;;;;;;;24.58;25.91;100706.31;5014389;28;20041;-54
2022/08/21 04:15:32;;;;;;;48.40;37.08;;;;;;;24.90;25.52;100708.75;5013231;28;20037;-50
2022/08/21 04:17:58;;;;;;;52.60;38.00;;;;;;;24.94;25.01;100704.56;5013277;28;20069;-55
2022/08/21 04:20:24;;;;;;;51.20;38.95;;;;;;;25.21;24.68;100711.13;5014060;28;20112;-60
2022/08/21 04:22:51;;;;;;;51.13;38.28;;;;;;;25.54;24.07;100706.09;5013301;28;20026;-54
2022/08/21 04:25:20;;;;;;;53.75;38.47;;;;;;;25.88;23.49;100712.59;5013033;28;20053;-55
2022/08/21 04:27:45;;;;;;;56.42;37.25;;;;;;;26.29;23.35;100710.91;5015451;28;20056;-52
2022/08/21 04:30:13;;;;;;;50.88;39.20;;;;;;;26.54;22.80;100715.81;5032565;28;20065;-56
2022/08/21 04:32:42;;;;;;;50.75;37.30;;;;;;;26.79;22.44;100708.66;5032956;28;20029;-54
2022/08/21 04:35:11;;;;;;;48.13;38.65;;;;;;;27.15;22.10;100727.72;5030843;28;20037;-54
2022/08/21 04:37:37;;;;;;;52.22;39.38;;;;;;;27.01;21.87;100705.75;5032727;28;20033;-55
2022/08/21 04:40:03;;;;;;;47.28;38.33;;;;;;;26.98;22.32;100708.88;5025638;28;20095;-56
2022/08/21 04:42:29;;;;;;;55.05;40.40;;;;;;;27.32;21.64;100725.38;5012779;28;20076;-55
2022/08/21 04:44:56;;;;;;;52.80;38.95;;;;;;;27.49;21.38;100736.75;5012706;28;20057;-54
2022/08/21 04:47:23;;;;;;;53.35;39.90;;;;;;;27.18;21.41;100724.53;5029691;28;20095;-54
2022/08/21 04:49:49;;;;;;;55.05;40.65;;;;;;;27.01;21.44;100711.25;5032349;28;20099;-56
2022/08/21 04:52:19;;;;;;;52.78;40.22;;;;;;;27.48;21.38;100735.06;5031780;28;20128;-58
2022/08/21 04:54:45;;;;;;;60.45;40.80;;;;;;;27.85;20.58;100720.81;5031213;28;20041;-54
2022/08/21 04:57:12;;;;;;;55.13;40.17;;;;;;;28.03;20.34;100736.66;5032282;28;20083;-58
2022/08/21 04:59:44;;;;;;;54.28;42.13;;;;;;;28.57;20.10;100725.41;5031529;28;20417;-58
2022/08/21 05:02:10;;;;;;;55.95;41.30;;;;;;;29.49;18.87;100721.31;5029988;28;20112;-57
2022/08/21 05:04:41;;;;;;;51.78;42.58;;;;;;;30.83;17.68;100723.41;5012371;28;20054;-57
2022/08/21 05:07:12;;;;;;;53.17;42.67;;;;;;;31.87;16.59;100716.50;5012310;28;20131;-54
2022/08/21 05:09:38;;;;;;;52.38;40.97;;;;;;;32.69;15.60;100710.03;5015069;28;20032;-55
2022/08/21 05:12:04;;;;;;;53.53;40.63;;;;;;;34.10;14.55;100709.06;5032074;28;20037;-52
2022/08/21 05:14:30;;;;;;;49.13;39.92;;;;;;;34.87;14.09;100713.72;5031809;28;20041;-57
2022/08/21 05:16:55;;;;;;;54.70;40.78;;;;;;;35.32;13.16;100700.41;5030778;28;20026;-55
2022/08/21 05:19:21;;;;;;;50.58;39.65;;;;;;;35.87;12.78;100714.09;5031277;28;20045;-53
2022/08/21 05:21:50;;;;;;;45.60;40.22;;;;;;;36.42;12.60;100719.28;5019685;28;20018;-57
2022/08/21 05:24:16;;;;;;;53.25;41.80;;;;;;;36.95;12.19;100693.09;5017926;28;20127;-62
2022/08/21 05:26:41;;;;;;;49.05;39.38;;;;;;;37.23;11.74;100694.50;5019085;28;20037;-56
2022/08/21 05:29:07;;;;;;;49.53;41.05;;;;;;;37.15;12.01;100709.03;5019530;28;20033;-58
2022/08/21 05:31:33;;;;;;;49.08;39.50;;;;;;;36.63;12.35;100704.28;5020048;28;20370;-61
2022/08/21 05:33:59;;;;;;;52.15;40.63;;;;;;;37.12;11.56;100682.50;5019751;28;20080;-59
2022/08/21 05:36:25;;;;;;;50.90;41.25;;;;;;;37.92;10.95;100693.97;5021332;28;20049;-55
2022/08/21 05:38:50;;;;;;;44.92;40.03;;;;;;;38.23;11.13;100693.00;5018593;28;20033;-60
2022/08/21 05:41:16;;;;;;;50.58;40.80;;;;;;;38.37;11.01;100716.41;5019484;28;20424;-58
2022/08/21 05:43:41;;;;;;;50.08;42.13;;;;;;;38.63;10.73;100705.06;5020874;28;20191;-56
2022/08/21 05:46:08;;;;;;;45.47;39.92;;;;;;;38.69;10.91;100711.41;5014567;28;20021;-57
2022/08/21 05:48:34;;;;;;;49.10;40.58;;;;;;;39.80;9.98;100694.06;5020229;28;20061;-65
2022/08/21 05:51:12;;;;;;;45.72;40.83;;;;;;;41.06;9.61;100708.72;5019555;28;20026;-59
2022/08/21 05:53:38;;;;;;;48.13;40.88;;;;;;;40.94;8.56;100707.25;5020136;28;20381;-56
2022/08/21 05:56:04;;;;;;;47.95;40.67;;;;;;;41.06;8.69;100700.31;5018903;28;20029;-62
2022/08/21 05:58:32;;;;;;;42.92;38.28;;;;;;;41.14;8.57;100710.81;5021238;28;20044;-60
2022/08/21 06:00:59;;;;;;;47.28;39.75;;;;;;;41.65;8.38;100711.84;5019334;28;20029;-58
2022/08/21 06:03:28;;;;;;;43.97;39.17;;;;;;;42.54;8.03;100707.91;5019280;28;20068;-58
2022/08/21 06:05:54;;;;;;;45.10;40.30;;;;;;;43.65;7.27;100700.69;5020030;28;20174;-57
2022/08/21 06:08:20;;;;;;;45.03;39.95;;;;;;;44.39;6.92;100695.34;5019802;28;20107;-61
2022/08/21 06:10:47;;;;;;;44.15;39.53;;;;;;;44.35;6.60;100690.69;5018763;28;20499;-54
2022/08/21 06:13:14;;;;;;;43.08;37.28;;;;;;;44.41;6.39;100703.47;5021935;28;20034;-58
2022/08/21 06:15:40;;;;;;;45.25;37.47;;;;;;;44.05;6.37;100688.50;5029258;28;20374;-59
2022/08/21 06:18:05;;;;;;;45.00;37.65;;;;;;;43.94;6.54;100678.72;5031534;28;20032;-59
2022/08/21 06:20:31;;;;;;;42.92;36.47;;;;;;;44.06;6.57;100687.34;5031433;28;20033;-55
2022/08/21 06:22:57;;;;;;;42.10;37.60;;;;;;;44.21;6.35;100688.03;5027589;28;20026;-58
2022/08/21 06:25:24;;;;;;;43.88;38.95;;;;;;;43.98;6.48;100679.72;5029427;28;20029;-55
2022/08/21 06:27:50;;;;;;;43.33;38.60;;;;;;;43.22;6.73;100688.09;5031132;28;20390;-58
2022/08/21 06:30:16;;;;;;;41.92;37.38;;;;;;;43.48;6.90;100687.38;5017242;28;20070;-57
2022/08/21 06:32:42;;;;;;;42.15;37.63;;;;;;;44.12;6.38;100673.94;5011134;28;20030;-57
2022/08/21 06:35:08;;;;;;;47.67;38.83;;;;;;;44.04;6.67;100667.09;5012212;28;20038;-55
2022/08/21 06:37:33;;;;;;;43.00;38.47;;;;;;;43.26;6.57;100675.03;5011674;28;20417;-56
2022/08/21 06:39:59;;;;;;;46.70;39.35;;;;;;;42.80;6.91;100705.25;5011270;28;20030;-58
2022/08/21 06:42:24;;;;;;;44.40;37.45;;;;;;;43.13;6.68;100675.94;5011873;28;20041;-57
2022/08/21 06:44:50;;;;;;;44.22;38.47;;;;;;;42.40;6.91;100674.97;5018091;28;20032;-58
2022/08/21 06:47:16;;;;;;;45.05;39.15;;;;;;;42.13;7.15;100670.31;5019427;28;20029;-60
2022/08/21 06:49:41;;;;;;;49.10;40.25;;;;;;;41.85;7.68;100671.19;5020155;28;20196;-61
2022/08/21 06:52:12;;;;;;;46.60;39.55;;;;;;;43.30;7.22;100666.78;5018851;28;20179;-61
2022/08/21 06:54:38;;;;;;;46.25;37.88;;;;;;;45.06;6.09;100678.13;5023647;28;20032;-60
2022/08/21 06:57:04;;;;;;;45.53;36.42;;;;;;;46.22;5.19;100705.41;5023435;28;20055;-60
2022/08/21 06:59:30;;;;;;;40.78;36.35;;;;;;;45.50;5.41;100675.09;5023079;28;20153;-60
2022/08/21 07:01:55;;;;;;;44.05;36.97;;;;;;;44.25;6.22;100674.91;5023337;28;20037;-59
2022/08/21 07:04:21;;;;;;;40.47;36.22;;;;;;;43.24;6.63;100688.59;5022490;28;20050;-59
2022/08/21 07:06:47;;;;;;;40.83;35.65;;;;;;;43.41;6.65;100678.56;5019051;28;20515;-57
2022/08/21 07:09:12;;;;;;;39.85;35.67;;;;;;;43.92;6.31;100667.75;5021429;28;20467;-54
2022/08/21 07:11:38;;;;;;;40.78;36.05;;;;;;;44.63;5.66;100677.06;5034418;28;20029;-56
2022/08/21 07:14:04;;;;;;;39.90;35.58;;;;;;;44.39;5.78;100672.75;5034789;28;20033;-55
2022/08/21 07:16:29;;;;;;;41.78;36.45;;;;;;;44.11;6.34;100658.97;5033388;28;20167;-54
2022/08/21 07:18:55;;;;;;;46.35;36.42;;;;;;;44.78;5.51;100672.03;5015502;28;20140;-58
2022/08/21 07:21:21;;;;;;;40.42;35.85;;;;;;;43.98;5.93;100657.13;5014575;28;20034;-56
2022/08/21 07:23:49;;;;;;;44.00;36.30;;;;;;;43.23;6.44;100663.56;5015378;28;20480;-54
2022/08/21 07:26:21;;;;;;;42.72;36.13;;;;;;;43.40;6.40;100660.84;5014483;28;20065;-52
2022/08/21 07:28:48;;;;;;;39.28;33.20;;;;;;;44.86;5.97;100659.88;5014076;28;20033;-54
2022/08/21 07:31:16;;;;;;;38.30;34.20;;;;;;;45.93;5.34;100658.19;5015089;28;20149;-52
2022/08/21 07:33:43;;;;;;;37.50;33.10;;;;;;;47.06;4.94;100648.91;5014349;28;20041;-54
2022/08/21 07:36:09;;;;;;;39.05;31.50;;;;;;;47.82;4.34;100662.69;5014854;28;20071;-54
2022/08/21 07:38:34;;;;;;;36.67;32.72;;;;;;;48.05;4.42;100671.53;5014064;28;20037;-53
2022/08/21 07:41:01;;;;;;;37.42;32.38;;;;;;;47.63;4.15;100668.97;5014055;28;20022;-54
2022/08/21 07:43:28;;;;;;;37.90;33.78;;;;;;;47.07;4.58;100664.75;5015245;28;20212;-55
2022/08/21 07:45:54;;;;;;;40.78;33.25;;;;;;;46.53;4.89;100658.00;5012718;28;20393;-53
2022/08/21 07:48:21;;;;;;;38.47;34.03;;;;;;;46.46;5.02;100652.91;5014470;28;20078;-53
2022/08/21 07:50:46;;;;;;;39.35;33.00;;;;;;;45.76;4.87;100657.13;5013917;28;20038;-52
2022/08/21 07:53:12;;;;;;;35.78;29.63;;;;;;;44.44;5.71;100657.63;5013843;28;20050;-51
2022/08/21 07:55:37;;;;;;;36.75;31.02;;;;;;;43.74;6.22;100647.16;5015085;28;20034;-67
2022/08/21 07:58:03;;;;;;;48.83;31.77;;;;;;;43.57;6.21;100636.69;5012737;28;20381;-51
2022/08/21 08:00:30;;;;;;;39.35;31.98;;;;;;;43.57;6.16;100653.59;5013727;28;20040;-54
2022/08/21 08:02:56;;;;;;;37.70;30.65;;;;;;;42.93;6.50;100647.22;5017857;28;20405;-53
2022/08/21 08:05:24;;;;;;;38.28;31.75;;;;;;;42.38;6.56;100654.78;5024389;28;20044;-54
2022/08/21 08:07:50;;;;;;;40.25;34.08;;;;;;;41.78;7.03;100631.44;5013341;28;20128;-51
2022/08/21 08:10:16;;;;;;;40.53;33.22;;;;;;;39.64;8.23;100624.19;5013543;28;20478;-52
2022/08/21 08:12:42;;;;;;;45.15;33.78;;;;;;;36.96;9.88;100645.41;5013501;28;20030;-50
2022/08/21 08:15:18;;;;;;;39.08;34.47;;;;;;;35.04;10.92;100628.19;5013858;28;20041;-52
2022/08/21 08:17:43;;;;;;;40.63;32.72;;;;;;;33.61;12.21;100632.91;5014215;28;20473;-52
2022/08/21 08:20:11;;;;;;;40.38;31.45;;;;;;;33.07;12.29;100645.50;5021187;28;20045;-66
2022/08/21 08:22:38;;;;;;;43.33;29.38;;;;;;;32.54;12.53;100650.44;5033478;28;20493;-56
2022/08/21 08:25:06;;;;;;;37.17;27.33;;;;;;;31.78;13.21;100630.22;5033223;28;20079;-53
2022/08/21 08:27:32;;;;;;;39.05;26.83;;;;;;;31.31;13.80;100633.88;5032710;28;20061;-49
2022/08/21 08:29:58;;;;;;;37.38;27.05;;;;;;;30.84;13.64;100609.00;5032648;28;20124;-54
2022/08/21 08:32:31;;;;;;;37.60;26.00;;;;;;;30.43;14.18;100615.19;5024102;28;20442;-51
2022/08/21 08:35:00;;;;;;;32.95;25.52;;;;;;;29.96;14.69;100598.47;5014216;28;20520;-54
2022/08/21 08:37:26;;;;;;;36.60;25.58;;;;;;;29.87;14.52;100603.47;5012731;28;20489;-52
2022/08/21 08:39:51;;;;;;;32.85;25.63;;;;;;;29.67;15.20;100609.25;5012645;28;20467;-52
2022/08/21 08:42:33;;;;;;;44.10;25.08;;;;;;;29.79;14.87;100611.00;5012652;28;20025;-49
2022/08/21 08:45:07;;;;;;;38.67;25.15;;;;;;;29.67;15.40;100606.50;5013097;28;20114;-53
2022/08/21 08:47:37;;;;;;;33.47;23.88;;;;;;;29.61;14.55;100620.13;5012546;28;20424;-53
2022/08/21 08:50:12;;;;;;;36.53;24.10;;;;;;;29.30;15.25;100601.78;5012520;28;20034;-49
2022/08/21 08:52:47;;;;;;;32.08;23.33;;;;;;;29.32;15.31;100610.72;5013867;28;20383;-50
2022/08/21 08:55:16;;;;;;;;;;;;;;;30.08;14.32;100610.41;5013169;28;20030;-50
2022/08/21 08:57:45;;;;;;;32.50;19.30;;;;;;;29.80;14.40;100611.84;5013160;28;19912;-55
2022/08/21 09:00:16;;;;;;;29.45;19.85;;;;;;;29.83;14.21;100597.56;5012634;28;20462;-52
2022/08/21 09:02:43;;;;;;;29.58;18.85;;;;;;;29.94;13.80;100591.25;5012208;28;20390;-64
2022/08/21 09:05:27;;;;;;;26.98;18.23;;;;;;;30.10;13.76;100597.19;5013214;28;20038;-55
2022/08/21 09:08:20;;;;;;;32.15;18.27;;;;;;;30.18;13.60;100599.66;5012255;28;20064;-53
2022/08/21 09:10:59;;;;;;;31.35;18.02;;;;;;;30.15;13.65;100615.84;5012027;28;20046;-52
2022/08/21 09:13:46;;;;;;;28.63;17.17;;;;;;;29.97;13.66;100623.06;5026832;28;20493;-48
2022/08/21 09:16:40;;;;;;;25.92;16.15;;;;;;;29.80;13.59;100598.03;5011437;28;20045;-65
2022/08/21 09:19:38;;;;;;;30.65;16.83;;;;;;;29.99;13.71;100604.34;5011821;28;20034;-51
2022/08/21 09:22:23;;;;;;;24.50;16.95;;;;;;;30.19;13.54;100593.03;5012712;28;20067;-52
2022/08/21 09:24:52;;;;;;;25.40;16.92;;;;;;;29.87;13.50;100596.00;5011596;28;20044;-54
2022/08/21 09:27:18;;;;;;;25.58;16.60;;;;;;;29.58;13.61;100592.19;5012838;28;20084;-53
2022/08/21 09:29:48;;;;;;;27.70;16.20;;;;;;;29.59;13.85;100614.00;5011995;28;20505;-56
2022/08/21 09:32:27;;;;;;;27.15;17.00;;;;;;;29.75;13.78;100598.72;5011648;28;20026;-66
2022/08/21 09:34:55;;;;;;;26.30;16.52;;;;;;;29.82;14.00;100590.34;5011672;28;20034;-54
2022/08/21 09:37:21;;;;;;;25.95;16.63;;;;;;;30.04;13.90;100589.88;5011855;28;20034;-51
2022/08/21 09:39:46;;;;;;;25.85;16.35;;;;;;;30.27;13.14;100604.81;5012814;28;20037;-52
2022/08/21 09:42:24;;;;;;;22.55;14.07;;;;;;;30.44;12.57;100593.91;5010724;28;20033;-53
2022/08/21 09:45:07;;;;;;;27.40;15.88;;;;;;;30.47;12.58;100580.47;5012204;28;20047;-53
2022/08/21 09:47:32;;;;;;;31.38;16.42;;;;;;;30.35;12.74;100596.19;5011568;28;20034;-53
2022/08/21 09:50:08;;;;;;;24.95;16.95;;;;;;;30.17;13.00;100602.63;5011535;28;20079;-56
2022/08/21 09:52:34;;;;;;;26.73;17.45;;;;;;;29.68;13.30;100595.22;5012184;28;20121;-51
2022/08/21 09:54:59;;;;;;;25.08;16.23;;;;;;;29.29;13.83;100589.09;5011259;28;20116;-54
2022/08/21 09:57:45;;;;;;;24.52;16.38;;;;;;;29.18;13.93;100599.00;5013826;28;20088;-51
2022/08/21 10:00:30;;;;;;;25.13;15.27;;;;;;;29.22;13.91;100601.03;5030214;28;20031;-55
2022/08/21 10:03:08;;;;;;;20.65;14.52;;;;;;;29.16;13.79;100624.03;5030982;28;20057;-54
2022/08/21 10:05:34;;;;;;;24.15;16.30;;;;;;;29.04;13.95;100615.66;5012203;28;20037;-49
2022/08/21 10:08:01;;;;;;;25.73;16.48;;;;;;;28.98;13.98;100574.38;5011217;28;20022;-52
2022/08/21 10:10:30;;;;;;;24.27;16.10;;;;;;;29.02;13.97;100601.25;5011381;28;20355;-52
2022/08/21 10:12:55;;;;;;;24.58;15.98;;;;;;;29.12;14.13;100586.09;5021091;28;20064;-49
2022/08/21 10:15:51;;;;;;;26.17;15.80;;;;;;;29.43;14.17;100585.13;5012007;28;20061;-54
2022/08/21 10:18:35;;;;;;;29.02;15.60;;;;;;;29.52;14.16;100582.91;5011550;28;20065;-55
2022/08/21 10:21:17;;;;;;;28.90;15.50;;;;;;;29.61;14.13;100603.56;5011883;28;20534;-52
2022/08/21 10:24:23;;;;;;;20.80;15.07;;;;;;;29.71;14.31;100582.88;5011516;28;20033;-52
2022/08/21 10:27:00;;;;;;;26.20;15.52;;;;;;;29.64;14.32;100564.47;5012305;28;20030;-54
2022/08/21 10:29:31;;;;;;;22.25;14.27;;;;;;;29.68;14.04;100573.16;5016144;28;20042;-55
2022/08/21 10:32:21;;;;;;;21.67;13.40;;;;;;;29.60;14.57;100582.56;5015469;28;20423;-52
2022/08/21 10:35:30;;;;;;;27.20;17.10;;;;;;;29.70;14.88;100565.47;5026416;28;20060;-70
2022/08/21 10:37:55;;;;;;;22.77;15.27;;;;;;;29.56;15.40;100564.81;5032906;28;20032;-57
2022/08/21 10:40:30;;;;;;;26.40;15.85;;;;;;;29.57;15.42;100565.66;5023458;28;20038;-53
2022/08/21 10:43:04;;;;;;;20.17;14.00;;;;;;;29.55;15.33;100562.31;5013248;28;20103;-57
2022/08/21 10:45:49;;;;;;;19.80;13.30;;;;;;;29.46;15.58;100568.13;5014152;28;20037;-54
2022/08/21 10:48:48;;;;;;;20.48;11.70;;;;;;;29.36;15.07;100574.16;5013040;28;20100;-51
2022/08/21 10:51:48;;;;;;;20.13;11.23;;;;;;;29.26;15.07;100571.09;5013966;28;20053;-54
2022/08/21 10:54:30;;;;;;;19.52;11.23;;;;;;;29.10;15.14;100575.31;5015540;28;20398;-56
2022/08/21 10:57:03;;;;;;;18.48;10.95;;;;;;;28.95;15.39;100556.41;5014607;28;20074;-50
2022/08/21 10:59:57;;;;;;;16.92;10.75;;;;;;;28.95;15.42;100556.41;5015473;28;20034;-53
2022/08/21 11:02:35;;;;;;;19.98;10.65;;;;;;;28.90;15.43;100576.38;5014180;28;20065;-53
2022/08/21 11:05:33;;;;;;;18.70;9.00;;;;;;;28.99;15.28;100568.66;5019369;28;20049;-50
2022/08/21 11:08:15;;;;;;;15.98;8.68;;;;;;;28.58;15.53;100546.13;5033861;28;20038;-52
2022/08/21 11:10:49;;;;;;;14.82;7.93;;;;;;;28.40;15.96;100549.66;5034523;28;20025;-52
2022/08/21 11:13:45;;;;;;;13.35;6.65;;;;;;;28.57;15.39;100557.38;5024367;28;20030;-55
2022/08/21 11:16:16;;;;;;;15.82;6.32;;;;;;;28.57;14.96;100562.88;5034208;28;20132;-49
2022/08/21 11:19:06;;;;;;;18.48;6.43;;;;;;;28.42;14.89;100553.03;5032102;28;20108;-48
2022/08/21 11:21:42;;;;;;;15.68;6.72;;;;;;;28.18;14.90;100555.53;5034061;28;20068;-51
2022/08/21 11:24:28;;;;;;;15.15;7.15;;;;;;;28.12;15.38;100558.34;5030066;28;20113;-49